sensor_id;sensor_type;location;lat;lon;timestamp;temperature;humidity
31113;DHT22;17763;48.730;9.136;2023-11-19T00:00:50;8.20;99.90
31113;DHT22;17763;48.730;9.136;2023-11-19T00:03:16;8.20;99.90
31113;DHT22;17763;48.730;9.136;2023-11-19T00:05:45;8.20;99.90
31113;DHT22;17763;48.730;9.136;2023-11-19T00:08:11;8.10;99.90
31113;DHT22;17763;48.730;9.136;2023-11-19T00:10:37;8.10;99.90
31113;DHT22;17763;48.730;9.136;2023-11-19T00:13:02;8.20;99.90
31113;DHT22;17763;48.730;9.136;2023-11-19T00:15:30;8.20;99.90
31113;DHT22;17763;48.730;9.136;2023-11-19T00:17:59;8.20;99.90
31113;DHT22;17763;48.730;9.136;2023-11-19T00:20:24;8.20;99.90
31113;DHT22;17763;48.730;9.136;2023-11-19T00:22:52;8.30;99.90
31113;DHT22;17763;48.730;9.136;2023-11-19T00:25:19;8.30;99.90
31113;DHT22;17763;48.730;9.136;2023-11-19T00:27:45;8.30;99.90
31113;DHT22;17763;48.730;9.136;2023-11-19T00:30:13;8.40;99.90
31113;DHT22;17763;48.730;9.136;2023-11-19T00:32:40;8.40;99.90
31113;DHT22;17763;48.730;9.136;2023-11-19T00:35:06;8.40;99.90
31113;DHT22;17763;48.730;9.136;2023-11-19T00:37:38;8.40;99.90
31113;DHT22;17763;48.730;9.136;2023-11-19T00:40:08;8.50;99.90
31113;DHT22;17763;48.730;9.136;2023-11-19T00:42:35;8.50;99.90
31113;DHT22;17763;48.730;9.136;2023-11-19T00:45:01;8.50;99.90
31113;DHT22;17763;48.730;9.136;2023-11-19T00:47:29;8.50;99.90
31113;DHT22;17763;48.730;9.136;2023-11-19T00:49:56;8.50;99.90
31113;DHT22;17763;48.730;9.136;2023-11-19T00:52:24;8.60;99.90
31113;DHT22;17763;48.730;9.136;2023-11-19T00:54:50;8.60;99.90
31113;DHT22;17763;48.730;9.136;2023-11-19T00:57:16;8.70;99.90
31113;DHT22;17763;48.730;9.136;2023-11-19T00:59:45;8.70;99.90
31113;DHT22;17763;48.730;9.136;2023-11-19T01:02:12;8.70;99.90
31113;DHT22;17763;48.730;9.136;2023-11-19T01:04:41;8.80;99.90
31113;DHT22;17763;48.730;9.136;2023-11-19T01:07:07;8.80;99.90
31113;DHT22;17763;48.730;9.136;2023-11-19T01:09:37;8.80;99.90
31113;DHT22;17763;48.730;9.136;2023-11-19T01:12:04;8.90;99.90
31113;DHT22;17763;48.730;9.136;2023-11-19T01:14:30;8.90;99.90
31113;DHT22;17763;48.730;9.136;2023-11-19T01:16:56;9.00;99.90
31113;DHT22;17763;48.730;9.136;2023-11-19T01:19:24;9.00;99.90
31113;DHT22;17763;48.730;9.136;2023-11-19T01:21:50;9.00;99.90
31113;DHT22;17763;48.730;9.136;2023-11-19T01:24:16;9.10;99.90
31113;DHT22;17763;48.730;9.136;2023-11-19T01:26:43;9.10;99.90
31113;DHT22;17763;48.730;9.136;2023-11-19T01:29:11;9.20;99.90
31113;DHT22;17763;48.730;9.136;2023-11-19T01:31:42;9.20;99.90
31113;DHT22;17763;48.730;9.136;2023-11-19T01:34:09;9.20;99.90
31113;DHT22;17763;48.730;9.136;2023-11-19T01:36:35;9.30;99.90
31113;DHT22;17763;48.730;9.136;2023-11-19T01:39:01;9.30;99.90
31113;DHT22;17763;48.730;9.136;2023-11-19T01:41:28;9.40;99.90
31113;DHT22;17763;48.730;9.136;2023-11-19T01:43:54;9.40;99.90
31113;DHT22;17763;48.730;9.136;2023-11-19T01:46:22;9.40;99.90
31113;DHT22;17763;48.730;9.136;2023-11-19T01:48:50;9.40;99.90
31113;DHT22;17763;48.730;9.136;2023-11-19T01:51:16;9.60;99.90
31113;DHT22;17763;48.730;9.136;2023-11-19T01:53:45;9.40;99.90
31113;DHT22;17763;48.730;9.136;2023-11-19T01:56:13;9.50;99.90
31113;DHT22;17763;48.730;9.136;2023-11-19T01:58:41;9.50;99.90
31113;DHT22;17763;48.730;9.136;2023-11-19T02:01:07;9.50;99.90
31113;DHT22;17763;48.730;9.136;2023-11-19T02:03:33;9.50;99.90
31113;DHT22;17763;48.730;9.136;2023-11-19T02:06:00;9.50;99.90
31113;DHT22;17763;48.730;9.136;2023-11-19T02:08:26;9.50;99.90
31113;DHT22;17763;48.730;9.136;2023-11-19T02:10:52;9.60;99.90
31113;DHT22;17763;48.730;9.136;2023-11-19T02:13:18;9.60;99.90
31113;DHT22;17763;48.730;9.136;2023-11-19T02:15:44;9.60;99.90
31113;DHT22;17763;48.730;9.136;2023-11-19T02:18:27;9.60;99.90
31113;DHT22;17763;48.730;9.136;2023-11-19T02:20:57;9.60;99.90
31113;DHT22;17763;48.730;9.136;2023-11-19T02:23:24;9.70;99.90
31113;DHT22;17763;48.730;9.136;2023-11-19T02:26:14;9.80;99.90
31113;DHT22;17763;48.730;9.136;2023-11-19T02:28:44;9.80;99.90
31113;DHT22;17763;48.730;9.136;2023-11-19T02:31:12;9.80;99.90
31113;DHT22;17763;48.730;9.136;2023-11-19T02:33:38;9.90;99.90
31113;DHT22;17763;48.730;9.136;2023-11-19T02:36:07;9.90;99.90
31113;DHT22;17763;48.730;9.136;2023-11-19T02:38:34;9.90;99.90
31113;DHT22;17763;48.730;9.136;2023-11-19T02:41:03;9.90;99.90
31113;DHT22;17763;48.730;9.136;2023-11-19T02:43:32;9.90;99.90
31113;DHT22;17763;48.730;9.136;2023-11-19T02:46:03;10.00;99.90
31113;DHT22;17763;48.730;9.136;2023-11-19T02:48:33;10.00;99.90
31113;DHT22;17763;48.730;9.136;2023-11-19T02:51:01;10.00;99.90
31113;DHT22;17763;48.730;9.136;2023-11-19T02:53:32;10.00;99.90
31113;DHT22;17763;48.730;9.136;2023-11-19T02:55:58;10.00;99.90
31113;DHT22;17763;48.730;9.136;2023-11-19T02:58:31;10.00;99.90
31113;DHT22;17763;48.730;9.136;2023-11-19T03:00:57;10.00;99.90
31113;DHT22;17763;48.730;9.136;2023-11-19T03:03:25;10.00;99.90
31113;DHT22;17763;48.730;9.136;2023-11-19T03:05:56;10.00;99.90
31113;DHT22;17763;48.730;9.136;2023-11-19T03:08:22;10.00;99.90
31113;DHT22;17763;48.730;9.136;2023-11-19T03:10:48;10.00;99.90
31113;DHT22;17763;48.730;9.136;2023-11-19T03:13:14;10.10;99.90
31113;DHT22;17763;48.730;9.136;2023-11-19T03:15:43;10.00;99.90
31113;DHT22;17763;48.730;9.136;2023-11-19T03:18:09;10.10;99.90
31113;DHT22;17763;48.730;9.136;2023-11-19T03:20:37;10.20;99.90
31113;DHT22;17763;48.730;9.136;2023-11-19T03:23:02;10.10;99.90
31113;DHT22;17763;48.730;9.136;2023-11-19T03:25:28;10.10;99.90
31113;DHT22;17763;48.730;9.136;2023-11-19T03:27:59;10.20;99.90
31113;DHT22;17763;48.730;9.136;2023-11-19T03:30:26;10.20;99.90
31113;DHT22;17763;48.730;9.136;2023-11-19T03:32:57;10.10;99.90
31113;DHT22;17763;48.730;9.136;2023-11-19T03:35:24;10.10;99.90
31113;DHT22;17763;48.730;9.136;2023-11-19T03:37:52;10.10;99.90
31113;DHT22;17763;48.730;9.136;2023-11-19T03:40:18;10.10;99.90
31113;DHT22;17763;48.730;9.136;2023-11-19T03:42:47;10.20;99.90
31113;DHT22;17763;48.730;9.136;2023-11-19T03:45:15;10.20;99.90
31113;DHT22;17763;48.730;9.136;2023-11-19T03:47:44;10.20;99.90
31113;DHT22;17763;48.730;9.136;2023-11-19T03:50:11;10.20;99.90
31113;DHT22;17763;48.730;9.136;2023-11-19T03:52:37;10.20;99.90
31113;DHT22;17763;48.730;9.136;2023-11-19T03:55:06;10.20;99.90
31113;DHT22;17763;48.730;9.136;2023-11-19T03:57:36;10.20;99.90
31113;DHT22;17763;48.730;9.136;2023-11-19T04:00:02;10.20;99.90
31113;DHT22;17763;48.730;9.136;2023-11-19T04:02:34;10.20;99.90
31113;DHT22;17763;48.730;9.136;2023-11-19T04:05:04;10.20;99.90
31113;DHT22;17763;48.730;9.136;2023-11-19T04:07:31;10.20;99.90
31113;DHT22;17763;48.730;9.136;2023-11-19T04:09:57;10.20;99.90
31113;DHT22;17763;48.730;9.136;2023-11-19T04:12:22;10.20;99.90
31113;DHT22;17763;48.730;9.136;2023-11-19T04:14:48;10.20;99.90
31113;DHT22;17763;48.730;9.136;2023-11-19T04:17:14;10.30;99.90
31113;DHT22;17763;48.730;9.136;2023-11-19T04:19:39;10.30;99.90
31113;DHT22;17763;48.730;9.136;2023-11-19T04:22:07;10.20;99.90
31113;DHT22;17763;48.730;9.136;2023-11-19T04:24:33;10.30;99.90
31113;DHT22;17763;48.730;9.136;2023-11-19T04:27:01;10.30;99.90
31113;DHT22;17763;48.730;9.136;2023-11-19T04:29:30;10.30;99.90
31113;DHT22;17763;48.730;9.136;2023-11-19T04:31:56;10.40;99.90
31113;DHT22;17763;48.730;9.136;2023-11-19T04:34:22;10.40;99.90
31113;DHT22;17763;48.730;9.136;2023-11-19T04:36:49;10.40;99.90
31113;DHT22;17763;48.730;9.136;2023-11-19T04:39:18;10.40;99.90
31113;DHT22;17763;48.730;9.136;2023-11-19T04:41:51;10.40;99.90
31113;DHT22;17763;48.730;9.136;2023-11-19T04:44:22;10.40;99.90
31113;DHT22;17763;48.730;9.136;2023-11-19T04:46:50;10.40;99.90
31113;DHT22;17763;48.730;9.136;2023-11-19T04:49:18;10.50;99.90
31113;DHT22;17763;48.730;9.136;2023-11-19T04:51:45;10.50;99.90
31113;DHT22;17763;48.730;9.136;2023-11-19T04:54:13;10.50;99.90
31113;DHT22;17763;48.730;9.136;2023-11-19T04:56:39;10.40;99.90
31113;DHT22;17763;48.730;9.136;2023-11-19T04:59:05;10.50;99.90
31113;DHT22;17763;48.730;9.136;2023-11-19T05:01:37;10.50;99.90
31113;DHT22;17763;48.730;9.136;2023-11-19T05:04:03;10.50;99.90
31113;DHT22;17763;48.730;9.136;2023-11-19T05:06:31;10.50;99.90
31113;DHT22;17763;48.730;9.136;2023-11-19T05:08:59;10.60;99.90
31113;DHT22;17763;48.730;9.136;2023-11-19T05:11:34;10.50;99.90
31113;DHT22;17763;48.730;9.136;2023-11-19T05:14:00;10.50;99.90
31113;DHT22;17763;48.730;9.136;2023-11-19T05:16:28;10.50;99.90
31113;DHT22;17763;48.730;9.136;2023-11-19T05:18:53;10.50;99.90
31113;DHT22;17763;48.730;9.136;2023-11-19T05:21:21;10.50;99.90
31113;DHT22;17763;48.730;9.136;2023-11-19T05:23:49;10.50;99.90
31113;DHT22;17763;48.730;9.136;2023-11-19T05:26:23;10.50;99.90
31113;DHT22;17763;48.730;9.136;2023-11-19T05:28:49;10.50;99.90
31113;DHT22;17763;48.730;9.136;2023-11-19T05:31:18;10.50;99.90
31113;DHT22;17763;48.730;9.136;2023-11-19T05:33:44;10.50;99.90
31113;DHT22;17763;48.730;9.136;2023-11-19T05:36:11;10.50;99.90
31113;DHT22;17763;48.730;9.136;2023-11-19T05:38:38;10.60;99.90
31113;DHT22;17763;48.730;9.136;2023-11-19T05:41:04;10.50;99.90
31113;DHT22;17763;48.730;9.136;2023-11-19T05:43:30;10.60;99.90
31113;DHT22;17763;48.730;9.136;2023-11-19T05:45:56;10.60;99.90
31113;DHT22;17763;48.730;9.136;2023-11-19T05:48:22;10.60;99.90
31113;DHT22;17763;48.730;9.136;2023-11-19T05:50:48;10.60;99.90
31113;DHT22;17763;48.730;9.136;2023-11-19T05:53:17;10.60;99.90
31113;DHT22;17763;48.730;9.136;2023-11-19T05:55:43;10.60;99.90
31113;DHT22;17763;48.730;9.136;2023-11-19T05:58:15;10.70;99.90
31113;DHT22;17763;48.730;9.136;2023-11-19T06:00:41;10.70;99.90
31113;DHT22;17763;48.730;9.136;2023-11-19T06:03:09;10.70;99.90
31113;DHT22;17763;48.730;9.136;2023-11-19T06:05:37;10.70;99.90
31113;DHT22;17763;48.730;9.136;2023-11-19T06:08:02;10.70;99.90
31113;DHT22;17763;48.730;9.136;2023-11-19T06:10:28;10.70;99.90
31113;DHT22;17763;48.730;9.136;2023-11-19T06:13:00;10.70;99.90
31113;DHT22;17763;48.730;9.136;2023-11-19T06:15:33;10.90;99.90
31113;DHT22;17763;48.730;9.136;2023-11-19T06:18:00;10.70;99.90
31113;DHT22;17763;48.730;9.136;2023-11-19T06:20:27;10.80;99.90
31113;DHT22;17763;48.730;9.136;2023-11-19T06:22:56;10.80;99.90
31113;DHT22;17763;48.730;9.136;2023-11-19T06:25:22;10.80;99.90
31113;DHT22;17763;48.730;9.136;2023-11-19T06:27:49;10.80;99.90
31113;DHT22;17763;48.730;9.136;2023-11-19T06:30:15;10.80;99.90
31113;DHT22;17763;48.730;9.136;2023-11-19T06:32:41;10.80;99.90
31113;DHT22;17763;48.730;9.136;2023-11-19T06:35:07;10.80;99.90
31113;DHT22;17763;48.730;9.136;2023-11-19T06:37:38;10.80;99.90
31113;DHT22;17763;48.730;9.136;2023-11-19T06:40:08;10.80;99.90
31113;DHT22;17763;48.730;9.136;2023-11-19T06:42:35;10.80;99.90
31113;DHT22;17763;48.730;9.136;2023-11-19T06:45:01;10.80;99.90
31113;DHT22;17763;48.730;9.136;2023-11-19T06:47:27;10.80;99.90
31113;DHT22;17763;48.730;9.136;2023-11-19T06:49:54;10.80;99.90
31113;DHT22;17763;48.730;9.136;2023-11-19T06:52:20;10.90;99.90
31113;DHT22;17763;48.730;9.136;2023-11-19T06:54:45;10.80;99.90
31113;DHT22;17763;48.730;9.136;2023-11-19T06:57:11;10.80;99.90
31113;DHT22;17763;48.730;9.136;2023-11-19T06:59:38;10.90;99.90
31113;DHT22;17763;48.730;9.136;2023-11-19T07:02:04;10.90;99.90
31113;DHT22;17763;48.730;9.136;2023-11-19T07:04:32;10.90;99.90
31113;DHT22;17763;48.730;9.136;2023-11-19T07:07:01;10.90;99.90
31113;DHT22;17763;48.730;9.136;2023-11-19T07:09:27;10.90;99.90
31113;DHT22;17763;48.730;9.136;2023-11-19T07:11:54;10.90;99.90
31113;DHT22;17763;48.730;9.136;2023-11-19T07:14:21;10.80;99.90
31113;DHT22;17763;48.730;9.136;2023-11-19T07:16:49;10.90;99.90
31113;DHT22;17763;48.730;9.136;2023-11-19T07:19:15;11.00;99.90
31113;DHT22;17763;48.730;9.136;2023-11-19T07:21:41;11.00;99.90
31113;DHT22;17763;48.730;9.136;2023-11-19T07:24:10;11.00;99.90
31113;DHT22;17763;48.730;9.136;2023-11-19T07:26:45;10.90;99.90
31113;DHT22;17763;48.730;9.136;2023-11-19T07:29:12;11.00;99.90
31113;DHT22;17763;48.730;9.136;2023-11-19T07:31:38;11.10;99.90
31113;DHT22;17763;48.730;9.136;2023-11-19T07:34:06;11.00;99.90
31113;DHT22;17763;48.730;9.136;2023-11-19T07:36:32;11.00;99.90
31113;DHT22;17763;48.730;9.136;2023-11-19T07:39:01;11.00;99.90
31113;DHT22;17763;48.730;9.136;2023-11-19T07:41:26;11.00;99.90
31113;DHT22;17763;48.730;9.136;2023-11-19T07:43:52;11.00;99.90
31113;DHT22;17763;48.730;9.136;2023-11-19T07:46:19;11.10;99.90
31113;DHT22;17763;48.730;9.136;2023-11-19T07:48:49;11.00;99.90
31113;DHT22;17763;48.730;9.136;2023-11-19T07:51:15;11.10;99.90
31113;DHT22;17763;48.730;9.136;2023-11-19T07:53:41;11.00;99.90
31113;DHT22;17763;48.730;9.136;2023-11-19T07:56:08;11.10;99.90
31113;DHT22;17763;48.730;9.136;2023-11-19T07:58:34;11.10;99.90
31113;DHT22;17763;48.730;9.136;2023-11-19T08:01:00;11.10;99.90
31113;DHT22;17763;48.730;9.136;2023-11-19T08:03:27;11.20;99.90
31113;DHT22;17763;48.730;9.136;2023-11-19T08:05:55;11.20;99.90
31113;DHT22;17763;48.730;9.136;2023-11-19T08:08:22;11.20;99.90
31113;DHT22;17763;48.730;9.136;2023-11-19T08:10:48;11.20;99.90
31113;DHT22;17763;48.730;9.136;2023-11-19T08:13:14;11.30;99.90
31113;DHT22;17763;48.730;9.136;2023-11-19T08:15:40;11.30;99.90
31113;DHT22;17763;48.730;9.136;2023-11-19T08:18:06;11.30;99.90
31113;DHT22;17763;48.730;9.136;2023-11-19T08:20:32;11.40;99.90
31113;DHT22;17763;48.730;9.136;2023-11-19T08:22:58;11.40;99.90
31113;DHT22;17763;48.730;9.136;2023-11-19T08:25:24;11.40;99.90
31113;DHT22;17763;48.730;9.136;2023-11-19T08:27:49;11.50;99.90
31113;DHT22;17763;48.730;9.136;2023-11-19T08:30:15;11.50;99.90
31113;DHT22;17763;48.730;9.136;2023-11-19T08:32:40;11.60;99.90
31113;DHT22;17763;48.730;9.136;2023-11-19T08:35:07;11.70;99.90
31113;DHT22;17763;48.730;9.136;2023-11-19T08:37:32;11.80;99.90
31113;DHT22;17763;48.730;9.136;2023-11-19T08:39:58;12.00;99.90
31113;DHT22;17763;48.730;9.136;2023-11-19T08:42:24;12.10;99.90
31113;DHT22;17763;48.730;9.136;2023-11-19T08:44:50;12.10;99.90
31113;DHT22;17763;48.730;9.136;2023-11-19T08:47:19;12.10;99.90
31113;DHT22;17763;48.730;9.136;2023-11-19T08:49:45;12.20;99.90
31113;DHT22;17763;48.730;9.136;2023-11-19T08:52:11;12.10;99.90
31113;DHT22;17763;48.730;9.136;2023-11-19T08:54:37;12.20;99.90
31113;DHT22;17763;48.730;9.136;2023-11-19T08:57:03;12.20;99.90
31113;DHT22;17763;48.730;9.136;2023-11-19T08:59:32;12.20;99.90
31113;DHT22;17763;48.730;9.136;2023-11-19T09:01:58;12.30;99.90
31113;DHT22;17763;48.730;9.136;2023-11-19T09:04:26;12.40;99.90
31113;DHT22;17763;48.730;9.136;2023-11-19T09:06:54;12.50;99.90
31113;DHT22;17763;48.730;9.136;2023-11-19T09:09:21;12.60;99.90
31113;DHT22;17763;48.730;9.136;2023-11-19T09:11:46;12.70;99.90
31113;DHT22;17763;48.730;9.136;2023-11-19T09:14:12;12.70;99.90
31113;DHT22;17763;48.730;9.136;2023-11-19T09:16:38;12.70;99.90
31113;DHT22;17763;48.730;9.136;2023-11-19T09:19:04;12.80;99.90
31113;DHT22;17763;48.730;9.136;2023-11-19T09:21:30;12.80;99.90
31113;DHT22;17763;48.730;9.136;2023-11-19T09:23:56;12.80;99.90
31113;DHT22;17763;48.730;9.136;2023-11-19T09:26:22;12.80;99.90
31113;DHT22;17763;48.730;9.136;2023-11-19T09:28:48;12.80;99.90
31113;DHT22;17763;48.730;9.136;2023-11-19T09:31:21;12.90;99.90
31113;DHT22;17763;48.730;9.136;2023-11-19T09:33:47;13.00;99.90
31113;DHT22;17763;48.730;9.136;2023-11-19T09:36:13;13.00;99.90
31113;DHT22;17763;48.730;9.136;2023-11-19T09:38:45;13.10;99.90
31113;DHT22;17763;48.730;9.136;2023-11-19T09:41:11;13.20;99.90
31113;DHT22;17763;48.730;9.136;2023-11-19T09:43:40;13.30;99.90
31113;DHT22;17763;48.730;9.136;2023-11-19T09:46:07;13.40;99.90
31113;DHT22;17763;48.730;9.136;2023-11-19T09:48:37;13.50;99.90
31113;DHT22;17763;48.730;9.136;2023-11-19T09:51:05;13.70;99.90
31113;DHT22;17763;48.730;9.136;2023-11-19T09:53:31;13.80;99.90
31113;DHT22;17763;48.730;9.136;2023-11-19T09:56:03;13.90;99.90
31113;DHT22;17763;48.730;9.136;2023-11-19T09:58:29;14.00;99.90
31113;DHT22;17763;48.730;9.136;2023-11-19T10:00:57;14.00;99.90
31113;DHT22;17763;48.730;9.136;2023-11-19T10:03:32;14.10;99.90
31113;DHT22;17763;48.730;9.136;2023-11-19T10:05:59;14.20;99.90
31113;DHT22;17763;48.730;9.136;2023-11-19T10:08:26;14.20;99.90
31113;DHT22;17763;48.730;9.136;2023-11-19T10:10:54;14.30;99.90
31113;DHT22;17763;48.730;9.136;2023-11-19T10:13:28;14.30;99.90
31113;DHT22;17763;48.730;9.136;2023-11-19T10:15:56;14.20;99.90
31113;DHT22;17763;48.730;9.136;2023-11-19T10:18:27;14.30;99.90
31113;DHT22;17763;48.730;9.136;2023-11-19T10:20:53;14.40;99.90
31113;DHT22;17763;48.730;9.136;2023-11-19T10:23:20;14.40;99.90
31113;DHT22;17763;48.730;9.136;2023-11-19T10:25:46;14.40;99.90
31113;DHT22;17763;48.730;9.136;2023-11-19T10:28:15;14.40;99.90
31113;DHT22;17763;48.730;9.136;2023-11-19T10:30:44;14.30;99.90
31113;DHT22;17763;48.730;9.136;2023-11-19T10:35:53;14.20;99.90
31113;DHT22;17763;48.730;9.136;2023-11-19T10:38:20;14.20;99.90
31113;DHT22;17763;48.730;9.136;2023-11-19T10:40:47;14.20;99.90
31113;DHT22;17763;48.730;9.136;2023-11-19T10:43:13;14.20;99.90
31113;DHT22;17763;48.730;9.136;2023-11-19T10:45:41;14.30;99.90
31113;DHT22;17763;48.730;9.136;2023-11-19T10:48:07;14.40;99.90
31113;DHT22;17763;48.730;9.136;2023-11-19T10:50:36;14.50;99.90
31113;DHT22;17763;48.730;9.136;2023-11-19T10:53:03;14.50;99.90
31113;DHT22;17763;48.730;9.136;2023-11-19T10:55:33;14.50;99.90
31113;DHT22;17763;48.730;9.136;2023-11-19T10:58:05;14.60;99.90
31113;DHT22;17763;48.730;9.136;2023-11-19T11:00:39;14.60;99.90
31113;DHT22;17763;48.730;9.136;2023-11-19T11:03:14;14.60;99.90
31113;DHT22;17763;48.730;9.136;2023-11-19T11:05:40;14.70;99.90
31113;DHT22;17763;48.730;9.136;2023-11-19T11:08:07;14.70;99.90
31113;DHT22;17763;48.730;9.136;2023-11-19T11:10:37;14.80;99.90
31113;DHT22;17763;48.730;9.136;2023-11-19T11:13:05;14.80;99.90
31113;DHT22;17763;48.730;9.136;2023-11-19T11:15:34;14.80;99.90
31113;DHT22;17763;48.730;9.136;2023-11-19T11:18:02;14.80;99.90
31113;DHT22;17763;48.730;9.136;2023-11-19T11:20:33;14.80;99.90
31113;DHT22;17763;48.730;9.136;2023-11-19T11:31:12;15.10;99.90
31113;DHT22;17763;48.730;9.136;2023-11-19T11:36:58;15.10;99.90
31113;DHT22;17763;48.730;9.136;2023-11-19T11:39:28;15.00;99.90
31113;DHT22;17763;48.730;9.136;2023-11-19T11:45:07;14.90;99.90
31113;DHT22;17763;48.730;9.136;2023-11-19T11:48:03;14.90;99.90
31113;DHT22;17763;48.730;9.136;2023-11-19T11:50:37;14.80;99.90
31113;DHT22;17763;48.730;9.136;2023-11-19T11:53:16;14.80;99.90
31113;DHT22;17763;48.730;9.136;2023-11-19T11:58:20;14.80;99.90
31113;DHT22;17763;48.730;9.136;2023-11-19T12:00:48;14.80;99.90
31113;DHT22;17763;48.730;9.136;2023-11-19T12:03:21;14.80;99.90
31113;DHT22;17763;48.730;9.136;2023-11-19T12:05:48;14.80;99.90
31113;DHT22;17763;48.730;9.136;2023-11-19T12:08:16;14.70;99.90
31113;DHT22;17763;48.730;9.136;2023-11-19T12:10:49;14.70;99.90
31113;DHT22;17763;48.730;9.136;2023-11-19T12:13:16;14.70;99.90
31113;DHT22;17763;48.730;9.136;2023-11-19T12:18:29;14.60;99.90
31113;DHT22;17763;48.730;9.136;2023-11-19T12:20:56;14.60;99.90
31113;DHT22;17763;48.730;9.136;2023-11-19T12:23:29;14.70;99.90
31113;DHT22;17763;48.730;9.136;2023-11-19T12:25:55;14.60;99.90
31113;DHT22;17763;48.730;9.136;2023-11-19T12:28:21;14.60;99.90
31113;DHT22;17763;48.730;9.136;2023-11-19T12:30:52;14.70;99.90
31113;DHT22;17763;48.730;9.136;2023-11-19T12:33:19;14.70;99.90
31113;DHT22;17763;48.730;9.136;2023-11-19T12:35:48;14.60;99.90
31113;DHT22;17763;48.730;9.136;2023-11-19T12:38:24;14.60;99.90
31113;DHT22;17763;48.730;9.136;2023-11-19T12:41:11;14.60;99.90
31113;DHT22;17763;48.730;9.136;2023-11-19T12:43:38;14.60;99.90
31113;DHT22;17763;48.730;9.136;2023-11-19T12:46:24;14.60;99.90
31113;DHT22;17763;48.730;9.136;2023-11-19T12:48:55;14.70;99.90
31113;DHT22;17763;48.730;9.136;2023-11-19T12:51:30;14.70;99.90
31113;DHT22;17763;48.730;9.136;2023-11-19T12:53:57;14.80;99.90
31113;DHT22;17763;48.730;9.136;2023-11-19T12:56:26;14.90;99.90
31113;DHT22;17763;48.730;9.136;2023-11-19T12:58:51;14.90;99.90
31113;DHT22;17763;48.730;9.136;2023-11-19T13:01:20;15.00;99.90
31113;DHT22;17763;48.730;9.136;2023-11-19T13:03:48;15.00;99.90
31113;DHT22;17763;48.730;9.136;2023-11-19T13:06:19;15.00;99.50
31113;DHT22;17763;48.730;9.136;2023-11-19T13:08:48;15.00;99.30
31113;DHT22;17763;48.730;9.136;2023-11-19T13:11:15;15.00;98.70
31113;DHT22;17763;48.730;9.136;2023-11-19T13:14:03;14.90;98.50
31113;DHT22;17763;48.730;9.136;2023-11-19T13:16:30;14.90;98.80
31113;DHT22;17763;48.730;9.136;2023-11-19T13:19:00;14.80;98.40
31113;DHT22;17763;48.730;9.136;2023-11-19T13:21:26;14.80;98.40
31113;DHT22;17763;48.730;9.136;2023-11-19T13:23:52;14.70;98.50
31113;DHT22;17763;48.730;9.136;2023-11-19T13:26:20;14.70;98.80
31113;DHT22;17763;48.730;9.136;2023-11-19T13:28:47;14.60;99.20
31113;DHT22;17763;48.730;9.136;2023-11-19T13:31:15;14.60;99.50
31113;DHT22;17763;48.730;9.136;2023-11-19T13:33:41;14.60;99.60
31113;DHT22;17763;48.730;9.136;2023-11-19T13:36:07;14.50;99.90
31113;DHT22;17763;48.730;9.136;2023-11-19T13:38:34;14.50;99.90
31113;DHT22;17763;48.730;9.136;2023-11-19T13:41:04;14.50;99.90
31113;DHT22;17763;48.730;9.136;2023-11-19T13:43:32;14.40;99.90
31113;DHT22;17763;48.730;9.136;2023-11-19T13:45:58;14.40;99.90
31113;DHT22;17763;48.730;9.136;2023-11-19T13:48:24;14.30;99.90
31113;DHT22;17763;48.730;9.136;2023-11-19T13:50:52;14.20;99.90
31113;DHT22;17763;48.730;9.136;2023-11-19T13:53:17;14.20;99.90
31113;DHT22;17763;48.730;9.136;2023-11-19T13:55:45;14.20;99.90
31113;DHT22;17763;48.730;9.136;2023-11-19T13:58:13;14.20;99.90
31113;DHT22;17763;48.730;9.136;2023-11-19T14:00:44;14.40;99.60
31113;DHT22;17763;48.730;9.136;2023-11-19T14:03:12;14.50;99.50
31113;DHT22;17763;48.730;9.136;2023-11-19T14:05:38;14.60;99.30
31113;DHT22;17763;48.730;9.136;2023-11-19T14:08:06;14.60;98.50
31113;DHT22;17763;48.730;9.136;2023-11-19T14:10:37;14.60;98.80
31113;DHT22;17763;48.730;9.136;2023-11-19T14:13:06;14.50;98.80
31113;DHT22;17763;48.730;9.136;2023-11-19T14:15:37;14.50;99.20
31113;DHT22;17763;48.730;9.136;2023-11-19T14:18:03;14.40;99.00
31113;DHT22;17763;48.730;9.136;2023-11-19T14:20:28;14.40;99.30
31113;DHT22;17763;48.730;9.136;2023-11-19T14:22:54;14.40;99.40
31113;DHT22;17763;48.730;9.136;2023-11-19T14:25:20;14.30;99.30
31113;DHT22;17763;48.730;9.136;2023-11-19T14:27:48;14.30;99.60
31113;DHT22;17763;48.730;9.136;2023-11-19T14:30:14;14.20;99.70
31113;DHT22;17763;48.730;9.136;2023-11-19T14:32:42;14.20;99.90
31113;DHT22;17763;48.730;9.136;2023-11-19T14:35:12;14.20;99.90
31113;DHT22;17763;48.730;9.136;2023-11-19T14:37:38;14.20;99.90
31113;DHT22;17763;48.730;9.136;2023-11-19T14:40:06;14.10;99.90
31113;DHT22;17763;48.730;9.136;2023-11-19T14:42:41;14.10;99.90
31113;DHT22;17763;48.730;9.136;2023-11-19T14:45:10;14.30;99.90
31113;DHT22;17763;48.730;9.136;2023-11-19T14:47:40;14.30;99.90
31113;DHT22;17763;48.730;9.136;2023-11-19T14:50:08;14.40;99.90
31113;DHT22;17763;48.730;9.136;2023-11-19T14:52:35;14.40;99.90
31113;DHT22;17763;48.730;9.136;2023-11-19T14:55:01;14.40;99.90
31113;DHT22;17763;48.730;9.136;2023-11-19T14:57:32;14.30;99.90
31113;DHT22;17763;48.730;9.136;2023-11-19T15:00:05;14.20;99.90
31113;DHT22;17763;48.730;9.136;2023-11-19T15:02:41;14.10;99.90
31113;DHT22;17763;48.730;9.136;2023-11-19T15:05:16;13.90;99.90
31113;DHT22;17763;48.730;9.136;2023-11-19T15:07:42;13.80;99.90
31113;DHT22;17763;48.730;9.136;2023-11-19T15:10:09;13.70;99.90
31113;DHT22;17763;48.730;9.136;2023-11-19T15:12:42;13.60;99.90
31113;DHT22;17763;48.730;9.136;2023-11-19T15:15:11;13.50;99.90
31113;DHT22;17763;48.730;9.136;2023-11-19T15:17:42;13.50;99.90
31113;DHT22;17763;48.730;9.136;2023-11-19T15:20:08;13.50;99.90
31113;DHT22;17763;48.730;9.136;2023-11-19T15:22:36;13.40;99.90
31113;DHT22;17763;48.730;9.136;2023-11-19T15:25:02;13.40;99.90
31113;DHT22;17763;48.730;9.136;2023-11-19T15:27:30;13.30;99.90
31113;DHT22;17763;48.730;9.136;2023-11-19T15:29:56;13.30;99.90
31113;DHT22;17763;48.730;9.136;2023-11-19T15:32:24;13.20;99.90
31113;DHT22;17763;48.730;9.136;2023-11-19T15:34:50;13.20;99.90
31113;DHT22;17763;48.730;9.136;2023-11-19T15:37:18;13.10;99.90
31113;DHT22;17763;48.730;9.136;2023-11-19T15:39:44;13.00;99.90
31113;DHT22;17763;48.730;9.136;2023-11-19T15:42:10;13.00;99.90
31113;DHT22;17763;48.730;9.136;2023-11-19T15:44:40;12.90;99.90
31113;DHT22;17763;48.730;9.136;2023-11-19T15:47:05;12.90;99.90
31113;DHT22;17763;48.730;9.136;2023-11-19T15:49:33;12.80;99.90
31113;DHT22;17763;48.730;9.136;2023-11-19T15:51:59;12.80;99.90
31113;DHT22;17763;48.730;9.136;2023-11-19T15:54:26;12.70;99.90
31113;DHT22;17763;48.730;9.136;2023-11-19T15:56:52;12.70;99.90
31113;DHT22;17763;48.730;9.136;2023-11-19T15:59:21;12.70;99.90